Time;durP1;ratioP1;P1;durP2;ratioP2;P2;SDS_P1;SDS_P2;PMS_P1;PMS_P2;Temp;Humidity;BMP_temperature;BMP_pressure;BME280_temperature;BME280_humidity;BME280_pressure;Samples;Min_cycle;Max_cycle;Signal;HPM_P1;HPM_P2
2023/11/12 00:00:42;;;;;;;4.25;1.95;;;;;;;;;;5047219;28;20107;-59
2023/11/12 00:03:08;;;;;;;8.95;2.10;;;;;;;;;;5041833;28;20492;-59
2023/11/12 00:05:36;;;;;;;9.73;4.07;;;;;;;;;;5046516;28;20409;-60
2023/11/12 00:08:02;;;;;;;4.72;1.98;;;;;;;;;;5043091;28;20080;-60
2023/11/12 00:10:28;;;;;;;4.32;1.88;;;;;;;;;;5047238;28;20396;-59
2023/11/12 00:12:55;;;;;;;9.23;4.53;;;;;;;;;;5045839;28;20505;-59
2023/11/12 00:15:21;;;;;;;5.28;2.22;;;;;;;;;;5045174;28;20041;-59
2023/11/12 00:17:47;;;;;;;7.28;2.17;;;;;;;;;;5043716;28;20037;-59
2023/11/12 00:20:13;;;;;;;6.95;2.60;;;;;;;;;;5043268;28;20059;-60
2023/11/12 00:22:43;;;;;;;7.68;2.53;;;;;;;;;;5043351;28;20048;-59
2023/11/12 00:25:10;;;;;;;6.78;2.30;;;;;;;;;;5042983;28;20045;-60
2023/11/12 00:27:37;;;;;;;5.88;2.17;;;;;;;;;;5048001;28;20066;-59
2023/11/12 00:30:04;;;;;;;7.68;1.88;;;;;;;;;;5015521;28;20155;-59
2023/11/12 00:32:32;;;;;;;9.50;2.20;;;;;;;;;;5033384;28;20144;-59
2023/11/12 00:34:58;;;;;;;4.53;1.95;;;;;;;;;;5037519;28;20041;-59
2023/11/12 00:37:24;;;;;;;4.55;2.03;;;;;;;;;;5032198;28;20041;-60
2023/11/12 00:39:50;;;;;;;5.15;2.10;;;;;;;;;;5031097;28;20045;-59
2023/11/12 00:42:17;;;;;;;11.05;1.95;;;;;;;;;;5030570;28;20069;-59
2023/11/12 00:44:45;;;;;;;4.60;2.25;;;;;;;;;;5028434;28;20056;-59
2023/11/12 00:47:12;;;;;;;6.60;2.25;;;;;;;;;;5031189;28;20084;-59
2023/11/12 00:49:38;;;;;;;6.18;2.67;;;;;;;;;;5031100;28;20053;-60
2023/11/12 00:52:05;;;;;;;8.40;2.85;;;;;;;;;;5032696;28;20164;-59
2023/11/12 00:54:32;;;;;;;8.95;2.45;;;;;;;;;;5030502;28;20404;-59
2023/11/12 00:56:58;;;;;;;10.07;2.80;;;;;;;;;;5031534;28;20548;-59
2023/11/12 00:59:24;;;;;;;8.75;2.85;;;;;;;;;;5033498;28;20037;-59
2023/11/12 01:01:51;;;;;;;5.80;2.78;;;;;;;;;;5031625;28;20088;-60
2023/11/12 01:04:17;;;;;;;6.00;2.83;;;;;;;;;;5028660;28;20178;-59
2023/11/12 01:06:43;;;;;;;6.82;2.78;;;;;;;;;;5035473;28;20049;-59
2023/11/12 01:09:09;;;;;;;10.65;3.63;;;;;;;;;;5035266;28;20033;-59
2023/11/12 01:11:37;;;;;;;9.65;3.60;;;;;;;;;;5032265;28;20045;-59
2023/11/12 01:14:03;;;;;;;6.03;3.05;;;;;;;;;;5032371;28;20397;-59
2023/11/12 01:16:30;;;;;;;8.20;4.20;;;;;;;;;;5020448;28;20158;-59
2023/11/12 01:18:58;;;;;;;6.20;3.20;;;;;;;;;;5039490;28;20528;-60
2023/11/12 01:21:25;;;;;;;8.90;3.53;;;;;;;;;;5039794;28;20147;-59
2023/11/12 01:23:51;;;;;;;9.57;3.28;;;;;;;;;;5034014;28;20079;-60
2023/11/12 01:26:18;;;;;;;6.53;3.22;;;;;;;;;;5034403;28;20045;-59
2023/11/12 01:28:44;;;;;;;7.78;3.30;;;;;;;;;;5031487;28;20053;-60
2023/11/12 01:31:10;;;;;;;6.05;3.03;;;;;;;;;;5047613;28;20365;-59
2023/11/12 01:33:37;;;;;;;6.50;3.30;;;;;;;;;;5032678;28;20204;-60
2023/11/12 01:36:03;;;;;;;6.88;2.80;;;;;;;;;;5051210;28;20045;-60
2023/11/12 01:38:31;;;;;;;7.78;3.13;;;;;;;;;;5046511;28;20040;-60
2023/11/12 01:41:02;;;;;;;7.45;3.30;;;;;;;;;;5043805;28;20082;-59
2023/11/12 01:43:30;;;;;;;5.80;2.88;;;;;;;;;;5044257;28;20037;-60
2023/11/12 01:45:56;;;;;;;6.47;2.72;;;;;;;;;;5049220;28;20123;-60
2023/11/12 01:48:23;;;;;;;28.08;2.92;;;;;;;;;;5050391;28;20076;-59
2023/11/12 01:50:50;;;;;;;34.90;3.55;;;;;;;;;;5046963;28;20052;-59
2023/11/12 01:53:16;;;;;;;5.57;2.58;;;;;;;;;;5046024;28;20048;-60
2023/11/12 01:55:46;;;;;;;11.43;3.28;;;;;;;;;;5045281;28;20038;-59
2023/11/12 01:58:14;;;;;;;6.03;2.95;;;;;;;;;;5049356;28;20048;-59
2023/11/12 02:00:40;;;;;;;6.85;2.53;;;;;;;;;;5047075;28;20045;-59
2023/11/12 02:03:07;;;;;;;5.68;2.67;;;;;;;;;;5051463;28;20428;-60
2023/11/12 02:05:33;;;;;;;6.97;3.40;;;;;;;;;;5049074;28;20049;-59
2023/11/12 02:08:03;;;;;;;76.88;5.13;;;;;;;;;;5047964;28;20037;-60
2023/11/12 02:10:35;;;;;;;8.40;2.80;;;;;;;;;;5053458;28;20053;-59
2023/11/12 02:13:03;;;;;;;10.20;3.58;;;;;;;;;;5047608;28;20061;-59
2023/11/12 02:15:30;;;;;;;6.40;3.25;;;;;;;;;;5049044;28;20381;-59
2023/11/12 02:17:57;;;;;;;9.73;2.67;;;;;;;;;;5052423;28;20087;-59
2023/11/12 02:20:24;;;;;;;6.38;2.85;;;;;;;;;;5045924;28;20390;-59
2023/11/12 02:22:50;;;;;;;5.78;2.97;;;;;;;;;;5040001;28;20063;-59
2023/11/12 02:25:16;;;;;;;6.65;2.70;;;;;;;;;;5042144;28;20041;-59
2023/11/12 02:27:45;;;;;;;6.68;2.97;;;;;;;;;;5046911;28;20033;-60
2023/11/12 02:30:12;;;;;;;6.30;3.42;;;;;;;;;;5044874;28;20196;-60
2023/11/12 02:32:40;;;;;;;12.48;3.50;;;;;;;;;;5050311;28;20052;-59
2023/11/12 02:35:07;;;;;;;6.22;2.95;;;;;;;;;;5055839;28;20143;-59
2023/11/12 02:37:35;;;;;;;5.32;3.13;;;;;;;;;;5054639;28;20124;-59
2023/11/12 02:40:02;;;;;;;6.05;2.90;;;;;;;;;;5051099;28;20471;-60
2023/11/12 02:42:29;;;;;;;5.20;3.15;;;;;;;;;;5047645;28;20163;-60
2023/11/12 02:44:57;;;;;;;5.85;2.88;;;;;;;;;;5053170;28;20057;-59
2023/11/12 02:47:23;;;;;;;7.95;3.35;;;;;;;;;;5047609;28;20393;-59
2023/11/12 02:50:07;;;;;;;8.45;3.30;;;;;;;;;;5051686;28;20128;-60
2023/11/12 02:52:33;;;;;;;;;;;;;;;;;;5048274;28;20524;-59
2023/11/12 02:54:59;;;;;;;8.52;3.92;;;;;;;;;;5052989;28;19921;-60
2023/11/12 02:57:26;;;;;;;7.30;3.53;;;;;;;;;;5052141;28;20060;-59
2023/11/12 02:59:53;;;;;;;14.05;4.28;;;;;;;;;;5029163;28;20061;-59
2023/11/12 03:02:20;;;;;;;12.00;4.03;;;;;;;;;;5048678;28;20501;-60
2023/11/12 03:04:47;;;;;;;10.13;4.22;;;;;;;;;;5051261;28;20120;-60
2023/11/12 03:07:13;;;;;;;9.27;4.32;;;;;;;;;;5052043;28;20052;-59
2023/11/12 03:09:40;;;;;;;12.90;4.82;;;;;;;;;;5045182;28;20154;-59
2023/11/12 03:12:06;;;;;;;7.20;4.60;;;;;;;;;;5049413;28;20119;-60
2023/11/12 03:14:33;;;;;;;10.07;5.28;;;;;;;;;;5052776;28;20056;-59
2023/11/12 03:16:59;;;;;;;8.93;4.90;;;;;;;;;;5051792;28;20053;-59
2023/11/12 03:19:25;;;;;;;16.13;5.63;;;;;;;;;;5046215;28;20052;-59
2023/11/12 03:21:52;;;;;;;10.38;5.82;;;;;;;;;;5048413;28;20049;-59
2023/11/12 03:24:19;;;;;;;13.27;5.93;;;;;;;;;;5056403;28;20045;-59
2023/11/12 03:26:45;;;;;;;13.45;5.30;;;;;;;;;;5050046;28;20064;-59
2023/11/12 03:29:11;;;;;;;11.45;5.10;;;;;;;;;;5050902;28;20087;-60
2023/11/12 03:31:38;;;;;;;15.60;5.47;;;;;;;;;;5051270;28;20053;-60
2023/11/12 03:34:04;;;;;;;10.35;5.90;;;;;;;;;;5054026;28;20115;-60
2023/11/12 03:36:30;;;;;;;15.38;6.35;;;;;;;;;;5054041;28;20493;-59
2023/11/12 03:38:56;;;;;;;11.30;6.18;;;;;;;;;;5049855;28;20458;-59
2023/11/12 03:41:23;;;;;;;11.73;6.53;;;;;;;;;;5047712;28;20060;-59
2023/11/12 03:43:49;;;;;;;15.95;5.97;;;;;;;;;;5051798;28;20068;-60
2023/11/12 03:46:15;;;;;;;12.18;5.88;;;;;;;;;;5051599;28;20041;-59
2023/11/12 03:48:42;;;;;;;10.13;6.03;;;;;;;;;;5050475;28;20041;-59
2023/11/12 03:51:08;;;;;;;14.13;6.57;;;;;;;;;;5045030;28;20053;-59
2023/11/12 03:53:34;;;;;;;11.82;6.05;;;;;;;;;;5052209;28;20037;-59
2023/11/12 03:56:00;;;;;;;13.75;5.45;;;;;;;;;;5052740;28;20052;-60
2023/11/12 03:58:26;;;;;;;18.50;5.88;;;;;;;;;;5041735;28;20049;-60
2023/11/12 04:00:52;;;;;;;11.80;6.75;;;;;;;;;;5039111;28;20135;-59
2023/11/12 04:03:19;;;;;;;13.50;6.07;;;;;;;;;;5050495;28;20086;-59
2023/11/12 04:05:45;;;;;;;15.23;7.00;;;;;;;;;;5056021;28;20064;-60
2023/11/12 04:08:11;;;;;;;12.30;6.60;;;;;;;;;;5050226;28;20239;-59
2023/11/12 04:10:37;;;;;;;9.68;5.95;;;;;;;;;;5049749;28;20096;-59
2023/11/12 04:13:03;;;;;;;17.35;7.22;;;;;;;;;;5049085;28;20041;-60
2023/11/12 04:15:30;;;;;;;14.10;7.47;;;;;;;;;;5049355;28;20551;-60
2023/11/12 04:17:56;;;;;;;12.10;6.97;;;;;;;;;;5051452;28;20584;-59
2023/11/12 04:20:28;;;;;;;21.17;7.53;;;;;;;;;;5046572;28;20132;-59
2023/11/12 04:22:54;;;;;;;14.45;7.90;;;;;;;;;;5044845;28;20048;-60
2023/11/12 04:25:21;;;;;;;13.75;7.75;;;;;;;;;;5049749;28;20057;-60
2023/11/12 04:27:47;;;;;;;19.52;8.70;;;;;;;;;;5051115;28;20178;-60
2023/11/12 04:30:14;;;;;;;15.23;7.80;;;;;;;;;;5048525;28;20084;-60
2023/11/12 04:32:40;;;;;;;18.88;7.15;;;;;;;;;;5051834;28;20518;-59
2023/11/12 04:35:07;;;;;;;11.15;7.00;;;;;;;;;;5052049;28;20044;-59
2023/11/12 04:37:33;;;;;;;11.93;6.70;;;;;;;;;;5048863;28;20084;-60
2023/11/12 04:40:03;;;;;;;16.42;7.13;;;;;;;;;;5048376;28;20051;-59
2023/11/12 04:42:30;;;;;;;10.70;6.03;;;;;;;;;;5050333;28;20396;-60
2023/11/12 04:44:56;;;;;;;14.38;7.13;;;;;;;;;;5042777;28;20068;-60
2023/11/12 04:47:22;;;;;;;14.50;8.25;;;;;;;;;;5028481;28;20045;-60
2023/11/12 04:49:48;;;;;;;19.08;8.00;;;;;;;;;;5042693;28;20048;-59
2023/11/12 04:52:14;;;;;;;12.82;6.80;;;;;;;;;;5046851;28;20456;-60
2023/11/12 04:54:40;;;;;;;16.50;7.82;;;;;;;;;;5047891;28;20148;-59
2023/11/12 04:57:07;;;;;;;15.40;8.05;;;;;;;;;;5049168;28;20361;-59
2023/11/12 04:59:33;;;;;;;21.02;7.90;;;;;;;;;;5051129;28;20045;-59
2023/11/12 05:01:59;;;;;;;15.50;8.30;;;;;;;;;;5049071;28;20439;-59
2023/11/12 05:04:25;;;;;;;14.52;8.02;;;;;;;;;;5048833;28;20041;-59
2023/11/12 05:06:51;;;;;;;16.92;7.50;;;;;;;;;;5049008;28;20517;-60
2023/11/12 05:09:18;;;;;;;17.95;8.45;;;;;;;;;;5044777;28;20045;-59
2023/11/12 05:11:45;;;;;;;11.45;7.20;;;;;;;;;;5038248;28;20048;-60
2023/11/12 05:14:11;;;;;;;18.25;9.13;;;;;;;;;;5050805;28;20052;-59
2023/11/12 05:16:37;;;;;;;14.02;7.15;;;;;;;;;;5049014;28;20040;-60
2023/11/12 05:19:03;;;;;;;18.17;7.55;;;;;;;;;;5048803;28;20171;-60
2023/11/12 05:21:29;;;;;;;13.88;7.47;;;;;;;;;;5053947;28;20060;-60
2023/11/12 05:23:59;;;;;;;15.52;7.55;;;;;;;;;;5052155;28;20047;-60
2023/11/12 05:26:28;;;;;;;18.60;7.57;;;;;;;;;;5050096;28;20033;-60
2023/11/12 05:28:54;;;;;;;12.00;7.25;;;;;;;;;;5046905;28;20094;-60
2023/11/12 05:31:35;;;;;;;12.18;7.20;;;;;;;;;;5048372;28;20049;-59
2023/11/12 05:34:02;;;;;;;14.48;7.95;;;;;;;;;;5048168;28;20096;-60
2023/11/12 05:36:28;;;;;;;14.55;7.13;;;;;;;;;;5049489;28;20078;-60
2023/11/12 05:38:54;;;;;;;17.98;7.50;;;;;;;;;;5049492;28;20044;-60
2023/11/12 05:41:21;;;;;;;20.42;7.90;;;;;;;;;;5057700;28;20044;-60
2023/11/12 05:43:47;;;;;;;13.60;8.02;;;;;;;;;;5044423;28;20197;-59
2023/11/12 05:46:14;;;;;;;22.45;7.97;;;;;;;;;;5049125;28;20052;-59
2023/11/12 05:48:40;;;;;;;14.93;7.55;;;;;;;;;;5049924;28;20392;-59
2023/11/12 05:51:08;;;;;;;16.17;8.80;;;;;;;;;;5036679;28;20053;-59
2023/11/12 05:53:34;;;;;;;21.58;8.30;;;;;;;;;;5050944;28;20130;-59
2023/11/12 05:56:00;;;;;;;16.33;9.13;;;;;;;;;;5051882;28;20123;-59
2023/11/12 05:58:26;;;;;;;14.77;8.50;;;;;;;;;;5053478;28;20488;-59
2023/11/12 06:00:55;;;;;;;18.20;7.47;;;;;;;;;;5048512;28;20398;-59
2023/11/12 06:03:23;;;;;;;13.80;6.70;;;;;;;;;;5044766;28;20607;-59
2023/11/12 06:05:52;;;;;;;19.58;7.18;;;;;;;;;;5052061;28;20080;-59
2023/11/12 06:08:18;;;;;;;29.38;7.18;;;;;;;;;;5054715;28;20033;-59
2023/11/12 06:10:45;;;;;;;125.30;10.52;;;;;;;;;;5059421;28;20049;-59
2023/11/12 06:13:11;;;;;;;169.82;11.80;;;;;;;;;;5051103;28;20049;-58
2023/11/12 06:15:37;;;;;;;187.15;11.68;;;;;;;;;;5051702;28;20049;-59
2023/11/12 06:18:08;;;;;;;130.15;10.23;;;;;;;;;;5050814;28;20048;-59
2023/11/12 06:20:34;;;;;;;127.95;9.15;;;;;;;;;;5048180;28;20100;-58
2023/11/12 06:23:00;;;;;;;93.53;8.40;;;;;;;;;;5047581;28;20493;-60
2023/11/12 06:25:26;;;;;;;47.65;8.07;;;;;;;;;;5048345;28;20045;-59
2023/11/12 06:27:53;;;;;;;21.42;7.80;;;;;;;;;;5050777;28;20041;-59
2023/11/12 06:30:19;;;;;;;53.47;8.15;;;;;;;;;;5050076;28;20278;-59
2023/11/12 06:32:46;;;;;;;45.85;8.38;;;;;;;;;;5046709;28;20043;-59
2023/11/12 06:35:12;;;;;;;121.07;9.57;;;;;;;;;;5051188;28;20056;-59
2023/11/12 06:37:40;;;;;;;123.53;8.63;;;;;;;;;;5048278;28;20056;-59
2023/11/12 06:40:08;;;;;;;114.10;8.38;;;;;;;;;;5050986;28;20373;-59
2023/11/12 06:42:34;;;;;;;138.10;9.13;;;;;;;;;;5046670;28;20127;-59
2023/11/12 06:45:00;;;;;;;270.73;11.15;;;;;;;;;;5052398;28;20369;-59
2023/11/12 06:47:26;;;;;;;205.75;10.88;;;;;;;;;;5053675;28;20067;-59
2023/11/12 06:49:53;;;;;;;184.43;9.30;;;;;;;;;;5047722;28;20040;-59
2023/11/12 06:52:19;;;;;;;164.52;8.68;;;;;;;;;;5053057;28;20053;-59
2023/11/12 06:54:45;;;;;;;80.85;7.03;;;;;;;;;;5053548;28;20141;-59
2023/11/12 06:57:11;;;;;;;97.47;8.05;;;;;;;;;;5050015;28;20048;-59
2023/11/12 06:59:48;;;;;;;75.50;7.38;;;;;;;;;;5047611;28;20033;-59
2023/11/12 07:02:34;;;;;;;66.45;6.70;;;;;;;;;;5047822;28;20115;-63
2023/11/12 07:05:07;;;;;;;68.82;7.00;;;;;;;;;;5031944;28;20080;-67
2023/11/12 07:07:33;;;;;;;42.50;6.20;;;;;;;;;;5029114;28;20374;-60
2023/11/12 07:10:00;;;;;;;26.67;5.32;;;;;;;;;;5052264;28;20300;-59
2023/11/12 07:12:26;;;;;;;13.35;5.35;;;;;;;;;;5053351;28;20045;-59
2023/11/12 07:14:52;;;;;;;10.57;5.68;;;;;;;;;;5049544;28;20040;-59
2023/11/12 07:17:18;;;;;;;14.07;6.70;;;;;;;;;;5051032;28;20053;-59
2023/11/12 07:19:45;;;;;;;18.85;7.35;;;;;;;;;;5050383;28;20059;-59
2023/11/12 07:22:11;;;;;;;14.68;7.72;;;;;;;;;;5046271;28;20369;-59
2023/11/12 07:24:38;;;;;;;11.65;7.15;;;;;;;;;;5049474;28;20045;-59
2023/11/12 07:27:04;;;;;;;15.50;8.07;;;;;;;;;;5044517;28;20041;-58
2023/11/12 07:29:30;;;;;;;11.95;7.70;;;;;;;;;;5049486;28;20053;-60
2023/11/12 07:31:57;;;;;;;19.10;8.30;;;;;;;;;;5041324;28;20500;-59
2023/11/12 07:34:23;;;;;;;13.93;8.30;;;;;;;;;;5049212;28;20124;-59
2023/11/12 07:37:10;;;;;;;15.07;7.78;;;;;;;;;;5056867;28;20052;-59
2023/11/12 07:39:36;;;;;;;15.77;8.15;;;;;;;;;;5046668;28;20040;-63
2023/11/12 07:42:03;;;;;;;14.45;8.10;;;;;;;;;;5038285;28;20080;-59
2023/11/12 07:44:38;;;;;;;19.27;9.00;;;;;;;;;;5050348;28;20047;-59
2023/11/12 07:47:07;;;;;;;15.13;7.50;;;;;;;;;;5040047;28;20041;-58
2023/11/12 07:49:34;;;;;;;14.02;9.02;;;;;;;;;;5049339;28;20077;-58
2023/11/12 07:52:00;;;;;;;15.30;8.52;;;;;;;;;;5051739;28;20053;-59
2023/11/12 07:54:26;;;;;;;14.25;7.85;;;;;;;;;;5041355;28;20181;-58
2023/11/12 07:56:53;;;;;;;13.75;8.15;;;;;;;;;;5037583;28;20103;-59
2023/11/12 07:59:19;;;;;;;14.35;7.65;;;;;;;;;;5053402;28;20154;-71
2023/11/12 08:01:50;;;;;;;21.00;8.07;;;;;;;;;;5034772;28;20045;-58
2023/11/12 08:04:17;;;;;;;20.35;8.10;;;;;;;;;;5050464;28;20036;-58
2023/11/12 08:06:49;;;;;;;15.10;7.85;;;;;;;;;;5049491;28;20136;-58
2023/11/12 08:09:16;;;;;;;18.33;7.68;;;;;;;;;;5048286;28;20048;-59
2023/11/12 08:11:42;;;;;;;14.05;7.40;;;;;;;;;;5054608;28;20492;-60
2023/11/12 08:14:09;;;;;;;16.45;7.05;;;;;;;;;;5049044;28;20049;-59
2023/11/12 08:16:36;;;;;;;13.68;6.88;;;;;;;;;;5047431;28;20045;-62
2023/11/12 08:19:02;;;;;;;16.15;6.90;;;;;;;;;;5032978;28;20045;-59
2023/11/12 08:21:28;;;;;;;16.65;7.15;;;;;;;;;;5046187;28;20037;-60
2023/11/12 08:23:54;;;;;;;12.18;7.00;;;;;;;;;;5050744;28;20048;-61
2023/11/12 08:26:20;;;;;;;12.02;7.20;;;;;;;;;;5049291;28;20143;-59
2023/11/12 08:28:47;;;;;;;14.15;7.15;;;;;;;;;;5049673;28;20032;-60
2023/11/12 08:31:15;;;;;;;12.98;7.68;;;;;;;;;;5050196;28;20060;-63
2023/11/12 08:33:42;;;;;;;23.30;7.40;;;;;;;;;;5050358;28;20044;-59
2023/11/12 08:36:09;;;;;;;17.17;7.43;;;;;;;;;;5049925;28;20059;-59
2023/11/12 08:38:35;;;;;;;13.27;7.50;;;;;;;;;;5048949;28;20126;-59
2023/11/12 08:41:02;;;;;;;18.73;8.13;;;;;;;;;;5047843;28;20088;-60
2023/11/12 08:43:28;;;;;;;19.20;8.05;;;;;;;;;;5049535;28;20045;-60
2023/11/12 08:45:54;;;;;;;13.90;7.30;;;;;;;;;;5052993;28;20052;-59
2023/11/12 08:48:21;;;;;;;16.02;7.82;;;;;;;;;;5051149;28;20059;-60
2023/11/12 08:50:48;;;;;;;12.23;6.63;;;;;;;;;;5055581;28;20048;-60
2023/11/12 08:53:14;;;;;;;15.23;7.45;;;;;;;;;;5051218;28;20047;-60
2023/11/12 08:55:41;;;;;;;16.20;8.23;;;;;;;;;;5051096;28;20460;-60
2023/11/12 08:58:07;;;;;;;16.35;7.72;;;;;;;;;;5054046;28;20098;-60
2023/11/12 09:00:33;;;;;;;16.50;7.72;;;;;;;;;;5050560;28;20045;-60
2023/11/12 09:03:00;;;;;;;13.95;7.43;;;;;;;;;;5055995;28;20032;-60
2023/11/12 09:05:26;;;;;;;12.65;6.90;;;;;;;;;;5033239;28;20106;-60
2023/11/12 09:07:54;;;;;;;12.55;6.28;;;;;;;;;;5050824;28;20081;-63
2023/11/12 09:10:20;;;;;;;12.00;6.93;;;;;;;;;;5031153;28;20148;-60
2023/11/12 09:12:46;;;;;;;11.20;6.47;;;;;;;;;;5031820;28;20488;-60
2023/11/12 09:15:18;;;;;;;14.38;7.03;;;;;;;;;;5051005;28;20041;-60
2023/11/12 09:17:44;;;;;;;13.57;6.47;;;;;;;;;;5053183;28;20059;-60
2023/11/12 09:20:14;;;;;;;11.95;5.60;;;;;;;;;;5056516;28;20172;-59
2023/11/12 09:22:41;;;;;;;12.52;6.60;;;;;;;;;;5034468;28;20500;-59
2023/11/12 09:25:09;;;;;;;9.52;5.25;;;;;;;;;;5049993;28;20056;-59
2023/11/12 09:27:35;;;;;;;10.38;5.75;;;;;;;;;;5050942;28;20067;-60
2023/11/12 09:30:02;;;;;;;10.45;5.30;;;;;;;;;;5029351;28;20057;-59
2023/11/12 09:32:29;;;;;;;11.07;4.80;;;;;;;;;;5024853;28;20053;-59
2023/11/12 09:34:55;;;;;;;8.50;4.10;;;;;;;;;;5029487;28;20095;-59
2023/11/12 09:37:21;;;;;;;9.88;4.40;;;;;;;;;;5033141;28;20041;-59
2023/11/12 09:39:47;;;;;;;6.47;3.58;;;;;;;;;;5031339;28;20470;-59
2023/11/12 09:42:17;;;;;;;8.73;4.07;;;;;;;;;;5030866;28;20048;-58
2023/11/12 09:44:46;;;;;;;9.95;3.92;;;;;;;;;;5030674;28;20081;-63
2023/11/12 09:47:21;;;;;;;13.15;4.75;;;;;;;;;;5033130;28;20525;-59
2023/11/12 09:49:48;;;;;;;8.48;3.30;;;;;;;;;;5033125;28;20485;-60
2023/11/12 09:52:14;;;;;;;9.77;3.85;;;;;;;;;;5029830;28;20089;-60
2023/11/12 09:54:41;;;;;;;7.95;4.57;;;;;;;;;;5026300;28;20056;-61
2023/11/12 09:57:08;;;;;;;7.22;3.38;;;;;;;;;;5030540;28;20086;-60
2023/11/12 09:59:35;;;;;;;9.43;2.45;;;;;;;;;;5037907;28;20485;-59
2023/11/12 10:02:02;;;;;;;5.05;2.30;;;;;;;;;;5030488;28;20049;-60
2023/11/12 10:04:28;;;;;;;6.53;2.50;;;;;;;;;;5030606;28;20400;-60
2023/11/12 10:06:54;;;;;;;4.80;2.05;;;;;;;;;;5030292;28;20049;-59
2023/11/12 10:09:31;;;;;;;7.60;2.05;;;;;;;;;;5028760;28;20044;-60
2023/11/12 10:12:03;;;;;;;5.65;2.30;;;;;;;;;;5030659;28;20091;-59
2023/11/12 10:14:30;;;;;;;9.38;2.70;;;;;;;;;;5029905;28;20041;-60
2023/11/12 10:17:07;;;;;;;6.13;2.38;;;;;;;;;;5030390;28;20450;-60
2023/11/12 10:19:37;;;;;;;5.70;2.55;;;;;;;;;;5029717;28;20050;-60
2023/11/12 10:22:06;;;;;;;4.80;1.90;;;;;;;;;;5029011;28;20041;-59
2023/11/12 10:24:43;;;;;;;4.85;1.70;;;;;;;;;;5030390;28;20049;-60
2023/11/12 10:27:14;;;;;;;5.05;1.70;;;;;;;;;;5030481;28;20060;-60
2023/11/12 10:29:43;;;;;;;5.63;1.42;;;;;;;;;;5039715;28;20053;-60
2023/11/12 10:32:24;;;;;;;6.38;1.30;;;;;;;;;;5050317;28;20462;-59
2023/11/12 10:34:50;;;;;;;7.55;1.00;;;;;;;;;;5050052;28;20387;-60
2023/11/12 10:37:19;;;;;;;4.50;1.10;;;;;;;;;;5050005;28;20071;-60
2023/11/12 10:39:46;;;;;;;7.70;0.90;;;;;;;;;;5052466;28;20052;-60
2023/11/12 10:42:26;;;;;;;3.10;0.80;;;;;;;;;;5052846;28;20060;-60
2023/11/12 10:44:54;;;;;;;2.40;0.90;;;;;;;;;;5053489;28;20044;-60
2023/11/12 10:47:23;;;;;;;2.80;0.85;;;;;;;;;;5054408;28;20087;-59
2023/11/12 10:49:49;;;;;;;1.90;0.75;;;;;;;;;;5053270;28;20159;-60
2023/11/12 10:52:16;;;;;;;4.30;0.80;;;;;;;;;;5052794;28;20115;-59
2023/11/12 10:54:43;;;;;;;3.92;1.02;;;;;;;;;;5053813;28;20044;-60
2023/11/12 10:57:10;;;;;;;3.25;1.40;;;;;;;;;;5035182;28;20059;-60
2023/11/12 10:59:37;;;;;;;3.97;0.93;;;;;;;;;;5053198;28;20044;-59
2023/11/12 11:02:04;;;;;;;2.75;0.80;;;;;;;;;;5053894;28;20071;-60
2023/11/12 11:04:33;;;;;;;6.90;1.83;;;;;;;;;;5052879;28;20044;-60
2023/11/12 11:07:00;;;;;;;5.82;1.25;;;;;;;;;;5052666;28;20047;-60
2023/11/12 11:09:28;;;;;;;3.83;0.80;;;;;;;;;;5052516;28;20396;-60
2023/11/12 11:11:56;;;;;;;2.63;1.00;;;;;;;;;;5053346;28;20044;-60
2023/11/12 11:14:23;;;;;;;3.53;1.75;;;;;;;;;;5053400;28;20355;-60
2023/11/12 11:16:53;;;;;;;4.00;0.80;;;;;;;;;;5052883;28;20442;-60
2023/11/12 11:19:19;;;;;;;5.43;1.10;;;;;;;;;;5053218;28;20044;-60
2023/11/12 11:22:04;;;;;;;3.40;1.13;;;;;;;;;;5052204;28;20506;-60
2023/11/12 11:24:46;;;;;;;3.88;1.08;;;;;;;;;;5052899;28;20151;-60
2023/11/12 11:27:12;;;;;;;3.15;1.08;;;;;;;;;;5052912;28;20460;-60
2023/11/12 11:30:00;;;;;;;3.42;0.80;;;;;;;;;;5052704;28;20071;-60
2023/11/12 11:32:26;;;;;;;3.25;1.00;;;;;;;;;;5052207;28;20040;-60
2023/11/12 11:34:53;;;;;;;4.22;1.20;;;;;;;;;;5051274;28;20319;-60
2023/11/12 11:37:21;;;;;;;5.63;1.35;;;;;;;;;;5051855;28;20060;-60
2023/11/12 11:39:47;;;;;;;2.35;1.02;;;;;;;;;;5046556;28;20046;-60
2023/11/12 11:42:14;;;;;;;2.13;1.10;;;;;;;;;;5033241;28;20045;-60
2023/11/12 11:44:41;;;;;;;4.88;1.30;;;;;;;;;;5043655;28;20037;-60
2023/11/12 11:47:16;;;;;;;4.38;1.23;;;;;;;;;;5052497;28;20508;-60
2023/11/12 11:49:49;;;;;;;4.18;1.20;;;;;;;;;;5051315;28;20041;-60
2023/11/12 11:52:20;;;;;;;3.25;1.25;;;;;;;;;;5052331;28;20064;-60
2023/11/12 11:54:46;;;;;;;3.75;1.65;;;;;;;;;;5052465;28;20049;-60
2023/11/12 11:57:18;;;;;;;3.08;1.27;;;;;;;;;;5052840;28;20511;-60
2023/11/12 11:59:45;;;;;;;6.65;1.70;;;;;;;;;;5051804;28;20396;-60
2023/11/12 12:02:16;;;;;;;5.10;1.60;;;;;;;;;;5051467;28;20068;-60
2023/11/12 12:04:50;;;;;;;4.40;1.73;;;;;;;;;;5052595;28;20497;-60
2023/11/12 12:07:27;;;;;;;4.65;1.48;;;;;;;;;;5051918;28;20102;-60
2023/11/12 12:09:54;;;;;;;6.38;1.50;;;;;;;;;;5051342;28;20037;-60
2023/11/12 12:12:21;;;;;;;3.08;1.52;;;;;;;;;;5046798;28;20044;-60
2023/11/12 12:14:48;;;;;;;4.22;1.50;;;;;;;;;;5050408;28;20040;-60
2023/11/12 12:17:14;;;;;;;4.05;1.60;;;;;;;;;;5052320;28;20067;-60
2023/11/12 12:19:41;;;;;;;3.10;1.45;;;;;;;;;;5051240;28;20041;-60
2023/11/12 12:22:07;;;;;;;5.03;1.60;;;;;;;;;;5051469;28;20040;-60
2023/11/12 12:24:34;;;;;;;5.03;1.60;;;;;;;;;;5052367;28;20054;-60
2023/11/12 12:27:06;;;;;;;4.10;1.20;;;;;;;;;;5050753;28;20045;-60
2023/11/12 12:29:33;;;;;;;4.53;1.42;;;;;;;;;;5051562;28;20359;-60
2023/11/12 12:32:11;;;;;;;1.25;0.50;;;;;;;;;;5052051;28;20075;-60
2023/11/12 12:34:43;;;;;;;3.72;0.95;;;;;;;;;;5051399;28;20041;-60
2023/11/12 12:37:09;;;;;;;1.50;0.47;;;;;;;;;;5051686;28;20441;-60
2023/11/12 12:40:10;;;;;;;2.50;0.75;;;;;;;;;;5051785;28;20049;-60
2023/11/12 12:42:36;;;;;;;5.03;0.80;;;;;;;;;;5028891;28;20455;-60
2023/11/12 12:45:04;;;;;;;4.57;0.85;;;;;;;;;;5045504;28;20526;-61
2023/11/12 12:47:36;;;;;;;2.53;0.52;;;;;;;;;;5030497;28;20144;-61
2023/11/12 12:50:25;;;;;;;2.28;0.90;;;;;;;;;;5044341;28;20167;-62
2023/11/12 12:52:52;;;;;;;2.50;0.82;;;;;;;;;;5046627;28;20041;-60
2023/11/12 12:55:21;;;;;;;3.38;1.00;;;;;;;;;;5049740;28;20384;-61
2023/11/12 12:57:50;;;;;;;2.90;0.95;;;;;;;;;;5046439;28;20446;-61
2023/11/12 13:00:21;;;;;;;5.05;1.05;;;;;;;;;;5045750;28;20102;-65
2023/11/12 13:03:20;;;;;;;2.55;1.00;;;;;;;;;;5040825;28;20104;-72
2023/11/12 13:06:00;;;;;;;5.95;1.50;;;;;;;;;;5042686;28;20508;-60
2023/11/12 13:08:28;;;;;;;7.15;2.00;;;;;;;;;;5040743;28;20423;-61
2023/11/12 13:10:54;;;;;;;9.18;3.00;;;;;;;;;;5047736;28;20044;-60
2023/11/12 13:13:21;;;;;;;8.45;3.20;;;;;;;;;;5045125;28;20084;-60
2023/11/12 13:15:48;;;;;;;7.68;3.03;;;;;;;;;;5051632;28;20068;-60
2023/11/12 13:18:14;;;;;;;4.57;1.92;;;;;;;;;;5031486;28;20342;-60
2023/11/12 13:20:44;;;;;;;6.78;2.45;;;;;;;;;;5045083;28;20048;-60
2023/11/12 13:23:18;;;;;;;5.90;2.57;;;;;;;;;;5039289;28;20105;-60
2023/11/12 13:25:48;;;;;;;7.88;2.78;;;;;;;;;;5053107;28;20041;-60
2023/11/12 13:28:16;;;;;;;7.50;2.78;;;;;;;;;;5058746;28;20068;-60
2023/11/12 13:30:43;;;;;;;6.63;3.15;;;;;;;;;;5043794;28;20137;-60
2023/11/12 13:33:09;;;;;;;7.38;2.88;;;;;;;;;;5044990;28;20124;-59
2023/11/12 13:35:39;;;;;;;6.88;2.60;;;;;;;;;;5037010;28;20446;-59
2023/11/12 13:38:05;;;;;;;8.48;3.15;;;;;;;;;;5038082;28;20131;-59
2023/11/12 13:40:33;;;;;;;6.85;3.53;;;;;;;;;;5046890;28;20090;-59
2023/11/12 13:43:00;;;;;;;8.60;4.18;;;;;;;;;;5044624;28;20076;-59
2023/11/12 13:45:27;;;;;;;9.98;4.70;;;;;;;;;;5047928;28;20052;-59
2023/11/12 13:47:54;;;;;;;10.75;4.63;;;;;;;;;;5050565;28;20084;-60
2023/11/12 13:50:24;;;;;;;12.02;5.82;;;;;;;;;;5051374;28;20048;-59
2023/11/12 13:52:58;;;;;;;10.38;6.10;;;;;;;;;;5049077;28;20056;-59
2023/11/12 13:55:27;;;;;;;12.07;6.20;;;;;;;;;;5046522;28;20057;-60
2023/11/12 13:57:55;;;;;;;26.27;7.60;;;;;;;;;;5049898;28;20048;-60
2023/11/12 14:00:27;;;;;;;11.38;6.97;;;;;;;;;;5053364;28;20049;-60
2023/11/12 14:02:54;;;;;;;11.82;7.10;;;;;;;;;;5057949;28;20485;-59
2023/11/12 14:05:25;;;;;;;13.35;7.47;;;;;;;;;;5048016;28;20051;-59
2023/11/12 14:07:55;;;;;;;10.25;7.03;;;;;;;;;;5042888;28;20036;-59
2023/11/12 14:10:21;;;;;;;12.90;8.38;;;;;;;;;;5048274;28;20135;-59
2023/11/12 14:12:50;;;;;;;14.55;8.38;;;;;;;;;;5048301;28;20112;-59
2023/11/12 14:15:18;;;;;;;13.77;8.70;;;;;;;;;;5052995;28;20041;-59
2023/11/12 14:17:45;;;;;;;14.10;9.98;;;;;;;;;;5047742;28;20150;-59
2023/11/12 14:20:20;;;;;;;14.30;9.25;;;;;;;;;;5051783;28;20055;-60
2023/11/12 14:22:48;;;;;;;14.75;9.18;;;;;;;;;;5050410;28;20473;-59
2023/11/12 14:25:18;;;;;;;14.82;9.07;;;;;;;;;;5042357;28;20528;-60
2023/11/12 14:27:45;;;;;;;14.75;9.68;;;;;;;;;;5051016;28;20059;-60
2023/11/12 14:30:13;;;;;;;15.00;10.05;;;;;;;;;;5051872;28;20056;-62
2023/11/12 14:32:41;;;;;;;16.05;9.20;;;;;;;;;;5050340;28;20072;-62
2023/11/12 14:35:08;;;;;;;14.50;10.25;;;;;;;;;;5051365;28;20045;-61
2023/11/12 14:37:34;;;;;;;17.38;9.30;;;;;;;;;;5051512;28;20049;-61
2023/11/12 14:40:09;;;;;;;12.60;9.15;;;;;;;;;;5052225;28;20064;-61